CheckWX is a tool to help pilots better visualize weather data.  It is not intended as a substitute for an official pre-flight weather briefing.

23:42:17 UTC

YBCG METAR
Gold Coast Airport
Gold Coast, Australia
Current

42 mins ago

YBCG 302300Z AUTO 34005KT 9999 // BKN079 OVC096 24/20 Q1015
Observed
Mar-30 @ 23:00 UTC
Wind
  • 340° at 5 KTS
Visibility
10,000+ meters
Flight Rules
VFR
Cloud Levels
  • Broken at 7,900' AGL
  • Overcast at 9,600' AGL
Temperature
24°C / 75°F
Dewpoint
20°C / 68°F
Humidity
78%
Altimeter
29.97" Hg
Pressure
1014.92 hPa
Previous

1 hour ago

YBCG 302230Z AUTO 34005KT 9999 // BKN079 OVC096 24/19 Q1015
Observed
Mar-30 @ 22:30 UTC
Wind
  • 340° at 5 KTS
Visibility
10,000+ meters
Flight Rules
VFR
Cloud Levels
  • Broken at 7,900' AGL
  • Overcast at 9,600' AGL
Temperature
24°C / 75°F
Dewpoint
19°C / 66°F
Humidity
74%
Altimeter
29.97" Hg
Pressure
1014.92 hPa
Previous

2 hours ago

YBCG 302200Z AUTO 34007KT 9999 // BKN081 25/19 Q1015
Observed
Mar-30 @ 22:00 UTC
Wind
  • 340° at 7 KTS
Visibility
10,000+ meters
Flight Rules
VFR
Cloud Levels
  • Broken at 8,100' AGL
Temperature
25°C / 77°F
Dewpoint
19°C / 66°F
Humidity
69%
Altimeter
29.97" Hg
Pressure
1014.92 hPa